ADDS METAR Data

Data at: 0505 UTC 20 Apr 2018

METAR for:CYFC (Fredericton Intl, NB, CN)
Text:CYFC 200412Z AUTO 32004KT 6SM -RA BR FEW011 BKN019 OVC040 03/03 A2966 RMK SLP046
Temperature: 3.0°C ( 37°F)
Dewpoint: 3.0°C ( 37°F) [RH = 100%]
Pressure (altimeter):29.66 inches Hg (1004.5 mb) [Sea level pressure: 1004.6 mb]
Winds:from the NW (320 degrees) at 5 MPH (4 knots; 2.1 m/s)
Visibility: 6 sm ( 10 km)
Ceiling:1900 feet AGL
Clouds: few clouds at 1100 feet AGL, broken clouds at 1900 feet AGL, overcast cloud deck at 4000 feet AGL
Weather:-RA BR (light rain, mist)